sensor_id;sensor_type;location;lat;lon;timestamp;temperature;humidity
68011;DHT22;54794;48.348;7.878;2022-12-11T00:00:09;4.30;70.20
68011;DHT22;54794;48.348;7.878;2022-12-11T00:02:37;3.90;69.90
68011;DHT22;54794;48.348;7.878;2022-12-11T00:05:04;3.90;69.90
68011;DHT22;54794;48.348;7.878;2022-12-11T00:07:31;3.90;70.00
68011;DHT22;54794;48.348;7.878;2022-12-11T00:09:58;3.90;70.00
68011;DHT22;54794;48.348;7.878;2022-12-11T00:12:25;3.80;70.00
68011;DHT22;54794;48.348;7.878;2022-12-11T00:14:51;4.20;70.30
68011;DHT22;54794;48.348;7.878;2022-12-11T00:17:18;3.90;70.20
68011;DHT22;54794;48.348;7.878;2022-12-11T00:19:45;4.20;70.50
68011;DHT22;54794;48.348;7.878;2022-12-11T00:22:12;3.90;70.30
68011;DHT22;54794;48.348;7.878;2022-12-11T00:24:39;3.90;70.40
68011;DHT22;54794;48.348;7.878;2022-12-11T00:27:05;4.10;70.50
68011;DHT22;54794;48.348;7.878;2022-12-11T00:29:33;3.90;70.40
68011;DHT22;54794;48.348;7.878;2022-12-11T00:32:00;3.90;70.40
68011;DHT22;54794;48.348;7.878;2022-12-11T00:34:27;3.90;70.40
68011;DHT22;54794;48.348;7.878;2022-12-11T00:36:53;4.10;70.50
68011;DHT22;54794;48.348;7.878;2022-12-11T00:39:20;4.20;70.50
68011;DHT22;54794;48.348;7.878;2022-12-11T00:41:47;4.00;70.40
68011;DHT22;54794;48.348;7.878;2022-12-11T00:44:14;4.00;70.40
68011;DHT22;54794;48.348;7.878;2022-12-11T00:46:40;4.00;70.40
68011;DHT22;54794;48.348;7.878;2022-12-11T00:49:07;4.10;70.40
68011;DHT22;54794;48.348;7.878;2022-12-11T00:51:34;4.40;70.60
68011;DHT22;54794;48.348;7.878;2022-12-11T00:54:01;4.20;70.50
68011;DHT22;54794;48.348;7.878;2022-12-11T00:56:29;4.00;70.40
68011;DHT22;54794;48.348;7.878;2022-12-11T00:58:56;4.50;70.60
68011;DHT22;54794;48.348;7.878;2022-12-11T01:01:23;4.20;70.40
68011;DHT22;54794;48.348;7.878;2022-12-11T01:03:52;4.20;70.40
68011;DHT22;54794;48.348;7.878;2022-12-11T01:06:20;4.10;70.40
68011;DHT22;54794;48.348;7.878;2022-12-11T01:08:49;4.10;70.40
68011;DHT22;54794;48.348;7.878;2022-12-11T01:11:36;4.10;70.40
68011;DHT22;54794;48.348;7.878;2022-12-11T01:14:03;4.10;70.30
68011;DHT22;54794;48.348;7.878;2022-12-11T01:16:30;4.10;70.30
68011;DHT22;54794;48.348;7.878;2022-12-11T01:18:57;4.10;70.30
68011;DHT22;54794;48.348;7.878;2022-12-11T01:21:24;4.10;70.30
68011;DHT22;54794;48.348;7.878;2022-12-11T01:23:51;4.10;70.20
68011;DHT22;54794;48.348;7.878;2022-12-11T01:26:18;4.10;70.10
68011;DHT22;54794;48.348;7.878;2022-12-11T01:28:47;4.10;70.20
68011;DHT22;54794;48.348;7.878;2022-12-11T01:31:15;4.00;70.10
68011;DHT22;54794;48.348;7.878;2022-12-11T01:33:43;4.00;70.10
68011;DHT22;54794;48.348;7.878;2022-12-11T01:36:11;4.00;70.20
68011;DHT22;54794;48.348;7.878;2022-12-11T01:38:41;4.00;70.20
68011;DHT22;54794;48.348;7.878;2022-12-11T01:41:08;4.00;70.20
68011;DHT22;54794;48.348;7.878;2022-12-11T01:46:33;4.00;70.20
68011;DHT22;54794;48.348;7.878;2022-12-11T01:49:02;4.10;70.30
68011;DHT22;54794;48.348;7.878;2022-12-11T01:51:34;4.50;70.60
68011;DHT22;54794;48.348;7.878;2022-12-11T01:54:08;4.10;70.30
68011;DHT22;54794;48.348;7.878;2022-12-11T01:56:39;4.00;70.20
68011;DHT22;54794;48.348;7.878;2022-12-11T01:59:08;4.20;70.30
68011;DHT22;54794;48.348;7.878;2022-12-11T02:01:37;4.20;70.40
68011;DHT22;54794;48.348;7.878;2022-12-11T02:04:07;4.20;70.30
68011;DHT22;54794;48.348;7.878;2022-12-11T02:09:11;4.10;70.30
68011;DHT22;54794;48.348;7.878;2022-12-11T02:12:00;4.10;70.20
68011;DHT22;54794;48.348;7.878;2022-12-11T02:17:45;4.10;70.30
68011;DHT22;54794;48.348;7.878;2022-12-11T02:20:17;4.10;70.30
68011;DHT22;54794;48.348;7.878;2022-12-11T02:31:09;4.00;70.10
68011;DHT22;54794;48.348;7.878;2022-12-11T02:33:45;4.00;70.10
68011;DHT22;54794;48.348;7.878;2022-12-11T02:36:17;4.00;70.20
68011;DHT22;54794;48.348;7.878;2022-12-11T02:38:49;4.00;70.20
68011;DHT22;54794;48.348;7.878;2022-12-11T02:41:19;4.00;70.30
68011;DHT22;54794;48.348;7.878;2022-12-11T02:43:48;4.00;70.40
68011;DHT22;54794;48.348;7.878;2022-12-11T02:46:16;4.00;70.40
68011;DHT22;54794;48.348;7.878;2022-12-11T02:48:45;4.00;70.40
68011;DHT22;54794;48.348;7.878;2022-12-11T02:51:15;4.00;70.40
68011;DHT22;54794;48.348;7.878;2022-12-11T02:53:44;4.00;70.40
68011;DHT22;54794;48.348;7.878;2022-12-11T02:56:18;4.00;70.40
68011;DHT22;54794;48.348;7.878;2022-12-11T02:58:57;4.00;70.80
68011;DHT22;54794;48.348;7.878;2022-12-11T03:01:26;4.00;70.30
68011;DHT22;54794;48.348;7.878;2022-12-11T03:03:53;4.40;70.50
68011;DHT22;54794;48.348;7.878;2022-12-11T03:06:23;4.00;70.30
68011;DHT22;54794;48.348;7.878;2022-12-11T03:08:54;4.50;70.60
68011;DHT22;54794;48.348;7.878;2022-12-11T03:11:21;4.00;70.30
68011;DHT22;54794;48.348;7.878;2022-12-11T03:13:48;4.00;70.30
68011;DHT22;54794;48.348;7.878;2022-12-11T03:16:22;4.00;70.20
68011;DHT22;54794;48.348;7.878;2022-12-11T03:19:22;4.00;70.20
68011;DHT22;54794;48.348;7.878;2022-12-11T03:24:59;3.90;70.10
68011;DHT22;54794;48.348;7.878;2022-12-11T03:27:33;3.90;70.10
68011;DHT22;54794;48.348;7.878;2022-12-11T03:30:07;3.90;70.10
68011;DHT22;54794;48.348;7.878;2022-12-11T03:35:33;3.90;70.00
68011;DHT22;54794;48.348;7.878;2022-12-11T03:38:05;3.90;70.10
68011;DHT22;54794;48.348;7.878;2022-12-11T03:40:35;3.80;70.10
68011;DHT22;54794;48.348;7.878;2022-12-11T03:43:05;3.80;70.20
68011;DHT22;54794;48.348;7.878;2022-12-11T03:45:32;3.80;70.20
68011;DHT22;54794;48.348;7.878;2022-12-11T03:48:00;3.90;70.30
68011;DHT22;54794;48.348;7.878;2022-12-11T03:50:29;3.80;70.20
68011;DHT22;54794;48.348;7.878;2022-12-11T03:52:58;3.80;70.20
68011;DHT22;54794;48.348;7.878;2022-12-11T03:55:27;3.80;70.20
68011;DHT22;54794;48.348;7.878;2022-12-11T03:57:55;4.20;71.00
68011;DHT22;54794;48.348;7.878;2022-12-11T04:00:22;3.80;70.30
68011;DHT22;54794;48.348;7.878;2022-12-11T04:02:49;4.40;70.60
68011;DHT22;54794;48.348;7.878;2022-12-11T04:05:43;4.60;70.70
68011;DHT22;54794;48.348;7.878;2022-12-11T04:08:11;3.80;70.20
68011;DHT22;54794;48.348;7.878;2022-12-11T04:10:39;4.10;70.40
68011;DHT22;54794;48.348;7.878;2022-12-11T04:13:06;3.80;70.20
68011;DHT22;54794;48.348;7.878;2022-12-11T04:15:34;3.90;70.20
68011;DHT22;54794;48.348;7.878;2022-12-11T04:18:02;4.60;70.50
68011;DHT22;54794;48.348;7.878;2022-12-11T04:20:47;3.80;70.10
68011;DHT22;54794;48.348;7.878;2022-12-11T04:23:33;4.20;70.30
68011;DHT22;54794;48.348;7.878;2022-12-11T04:26:19;3.80;70.00
68011;DHT22;54794;48.348;7.878;2022-12-11T04:28:46;3.80;70.00
68011;DHT22;54794;48.348;7.878;2022-12-11T04:31:16;4.00;70.10
68011;DHT22;54794;48.348;7.878;2022-12-11T04:33:45;4.40;70.30
68011;DHT22;54794;48.348;7.878;2022-12-11T04:36:13;4.10;70.10
68011;DHT22;54794;48.348;7.878;2022-12-11T04:38:40;3.90;69.90
68011;DHT22;54794;48.348;7.878;2022-12-11T04:41:09;4.30;70.00
68011;DHT22;54794;48.348;7.878;2022-12-11T04:43:38;4.40;70.10
68011;DHT22;54794;48.348;7.878;2022-12-11T04:46:09;4.10;69.90
68011;DHT22;54794;48.348;7.878;2022-12-11T04:48:41;3.50;69.70
68011;DHT22;54794;48.348;7.878;2022-12-11T04:51:08;3.70;70.00
68011;DHT22;54794;48.348;7.878;2022-12-11T04:53:35;3.60;70.00
68011;DHT22;54794;48.348;7.878;2022-12-11T04:56:06;3.80;70.20
68011;DHT22;54794;48.348;7.878;2022-12-11T04:58:34;3.40;70.00
68011;DHT22;54794;48.348;7.878;2022-12-11T05:01:08;3.50;70.10
68011;DHT22;54794;48.348;7.878;2022-12-11T05:03:37;3.50;70.10
68011;DHT22;54794;48.348;7.878;2022-12-11T05:06:04;3.60;70.20
68011;DHT22;54794;48.348;7.878;2022-12-11T05:08:32;3.50;70.10
68011;DHT22;54794;48.348;7.878;2022-12-11T05:11:02;3.70;70.30
68011;DHT22;54794;48.348;7.878;2022-12-11T05:13:33;3.80;70.40
68011;DHT22;54794;48.348;7.878;2022-12-11T05:16:02;3.40;70.10
68011;DHT22;54794;48.348;7.878;2022-12-11T05:18:30;3.50;70.20
68011;DHT22;54794;48.348;7.878;2022-12-11T05:20:58;3.60;70.20
68011;DHT22;54794;48.348;7.878;2022-12-11T05:23:27;3.50;70.20
68011;DHT22;54794;48.348;7.878;2022-12-11T05:25:55;3.90;71.00
68011;DHT22;54794;48.348;7.878;2022-12-11T05:28:26;3.50;70.20
68011;DHT22;54794;48.348;7.878;2022-12-11T05:30:58;3.50;70.20
68011;DHT22;54794;48.348;7.878;2022-12-11T05:33:28;3.90;70.40
68011;DHT22;54794;48.348;7.878;2022-12-11T05:35:55;3.50;70.20
68011;DHT22;54794;48.348;7.878;2022-12-11T05:38:22;3.50;70.20
68011;DHT22;54794;48.348;7.878;2022-12-11T05:40:56;3.50;70.10
68011;DHT22;54794;48.348;7.878;2022-12-11T05:43:24;3.50;70.10
68011;DHT22;54794;48.348;7.878;2022-12-11T05:45:52;3.60;70.20
68011;DHT22;54794;48.348;7.878;2022-12-11T05:48:20;3.90;70.40
68011;DHT22;54794;48.348;7.878;2022-12-11T05:51:00;3.60;70.20
68011;DHT22;54794;48.348;7.878;2022-12-11T05:53:28;3.60;70.20
68011;DHT22;54794;48.348;7.878;2022-12-11T05:56:05;3.60;70.20
68011;DHT22;54794;48.348;7.878;2022-12-11T05:58:36;3.60;70.10
68011;DHT22;54794;48.348;7.878;2022-12-11T06:01:07;4.10;70.90
68011;DHT22;54794;48.348;7.878;2022-12-11T06:03:42;3.60;70.10
68011;DHT22;54794;48.348;7.878;2022-12-11T06:06:10;3.90;70.30
68011;DHT22;54794;48.348;7.878;2022-12-11T06:08:37;4.20;70.40
68011;DHT22;54794;48.348;7.878;2022-12-11T06:11:04;3.60;70.10
68011;DHT22;54794;48.348;7.878;2022-12-11T06:13:31;3.90;70.30
68011;DHT22;54794;48.348;7.878;2022-12-11T06:16:01;3.60;70.10
68011;DHT22;54794;48.348;7.878;2022-12-11T06:18:29;3.80;70.20
68011;DHT22;54794;48.348;7.878;2022-12-11T06:20:57;3.50;70.00
68011;DHT22;54794;48.348;7.878;2022-12-11T06:23:24;3.60;70.10
68011;DHT22;54794;48.348;7.878;2022-12-11T06:25:51;3.50;70.10
68011;DHT22;54794;48.348;7.878;2022-12-11T06:28:19;3.80;70.30
68011;DHT22;54794;48.348;7.878;2022-12-11T06:30:46;3.50;70.10
68011;DHT22;54794;48.348;7.878;2022-12-11T06:33:12;3.50;70.10
68011;DHT22;54794;48.348;7.878;2022-12-11T06:35:39;3.50;70.10
68011;DHT22;54794;48.348;7.878;2022-12-11T06:38:08;3.80;70.30
68011;DHT22;54794;48.348;7.878;2022-12-11T06:40:36;3.50;70.10
68011;DHT22;54794;48.348;7.878;2022-12-11T06:43:03;3.50;70.10
68011;DHT22;54794;48.348;7.878;2022-12-11T06:45:30;3.60;70.20
68011;DHT22;54794;48.348;7.878;2022-12-11T06:47:58;3.50;70.10
68011;DHT22;54794;48.348;7.878;2022-12-11T06:50:25;3.90;70.30
68011;DHT22;54794;48.348;7.878;2022-12-11T06:52:52;3.40;69.90
68011;DHT22;54794;48.348;7.878;2022-12-11T06:55:19;4.00;70.20
68011;DHT22;54794;48.348;7.878;2022-12-11T06:57:46;3.40;69.90
68011;DHT22;54794;48.348;7.878;2022-12-11T07:00:13;3.70;70.10
68011;DHT22;54794;48.348;7.878;2022-12-11T07:02:41;3.40;70.00
68011;DHT22;54794;48.348;7.878;2022-12-11T07:05:08;3.80;70.30
68011;DHT22;54794;48.348;7.878;2022-12-11T07:07:35;3.70;70.30
68011;DHT22;54794;48.348;7.878;2022-12-11T07:10:02;3.40;70.10
68011;DHT22;54794;48.348;7.878;2022-12-11T07:12:34;3.40;70.10
68011;DHT22;54794;48.348;7.878;2022-12-11T07:15:02;3.70;70.30
68011;DHT22;54794;48.348;7.878;2022-12-11T07:17:30;3.40;70.20
68011;DHT22;54794;48.348;7.878;2022-12-11T07:19:57;3.90;70.40
68011;DHT22;54794;48.348;7.878;2022-12-11T07:22:24;3.50;70.10
68011;DHT22;54794;48.348;7.878;2022-12-11T07:24:51;3.60;70.10
68011;DHT22;54794;48.348;7.878;2022-12-11T07:27:18;3.30;69.90
68011;DHT22;54794;48.348;7.878;2022-12-11T07:29:45;3.70;70.20
68011;DHT22;54794;48.348;7.878;2022-12-11T07:32:12;3.30;70.00
68011;DHT22;54794;48.348;7.878;2022-12-11T07:34:40;3.60;70.20
68011;DHT22;54794;48.348;7.878;2022-12-11T07:37:06;3.30;70.00
68011;DHT22;54794;48.348;7.878;2022-12-11T07:39:33;3.30;70.00
68011;DHT22;54794;48.348;7.878;2022-12-11T07:42:02;3.30;70.00
68011;DHT22;54794;48.348;7.878;2022-12-11T07:44:29;3.30;70.00
68011;DHT22;54794;48.348;7.878;2022-12-11T07:46:56;3.30;69.90
68011;DHT22;54794;48.348;7.878;2022-12-11T07:49:23;3.90;70.20
68011;DHT22;54794;48.348;7.878;2022-12-11T07:51:50;3.20;69.70
68011;DHT22;54794;48.348;7.878;2022-12-11T07:54:17;3.30;69.90
68011;DHT22;54794;48.348;7.878;2022-12-11T07:56:44;3.30;70.00
68011;DHT22;54794;48.348;7.878;2022-12-11T07:59:19;3.40;70.00
68011;DHT22;54794;48.348;7.878;2022-12-11T08:01:46;3.20;69.90
68011;DHT22;54794;48.348;7.878;2022-12-11T08:04:13;3.10;69.80
68011;DHT22;54794;48.348;7.878;2022-12-11T08:06:41;3.10;69.80
68011;DHT22;54794;48.348;7.878;2022-12-11T08:09:10;3.10;69.90
68011;DHT22;54794;48.348;7.878;2022-12-11T08:11:49;3.10;69.70
68011;DHT22;54794;48.348;7.878;2022-12-11T08:14:17;3.00;69.50
68011;DHT22;54794;48.348;7.878;2022-12-11T08:16:45;3.50;69.90
68011;DHT22;54794;48.348;7.878;2022-12-11T08:19:13;3.50;70.00
68011;DHT22;54794;48.348;7.878;2022-12-11T08:21:40;3.20;70.30
68011;DHT22;54794;48.348;7.878;2022-12-11T08:24:08;3.00;69.80
68011;DHT22;54794;48.348;7.878;2022-12-11T08:26:36;3.10;70.00
68011;DHT22;54794;48.348;7.878;2022-12-11T08:29:03;2.80;70.00
68011;DHT22;54794;48.348;7.878;2022-12-11T08:31:30;3.30;70.30
68011;DHT22;54794;48.348;7.878;2022-12-11T08:33:57;3.40;70.50
68011;DHT22;54794;48.348;7.878;2022-12-11T08:36:24;2.90;70.20
68011;DHT22;54794;48.348;7.878;2022-12-11T08:38:51;3.80;70.70
68011;DHT22;54794;48.348;7.878;2022-12-11T08:41:21;2.90;70.10
68011;DHT22;54794;48.348;7.878;2022-12-11T08:43:50;2.90;70.20
68011;DHT22;54794;48.348;7.878;2022-12-11T08:46:22;2.90;70.10
68011;DHT22;54794;48.348;7.878;2022-12-11T08:48:50;3.20;70.20
68011;DHT22;54794;48.348;7.878;2022-12-11T08:51:19;2.90;70.10
68011;DHT22;54794;48.348;7.878;2022-12-11T08:53:49;3.30;70.40
68011;DHT22;54794;48.348;7.878;2022-12-11T08:56:19;3.00;70.10
68011;DHT22;54794;48.348;7.878;2022-12-11T08:58:49;3.30;70.20
68011;DHT22;54794;48.348;7.878;2022-12-11T09:01:18;3.00;70.00
68011;DHT22;54794;48.348;7.878;2022-12-11T09:03:50;3.00;70.10
68011;DHT22;54794;48.348;7.878;2022-12-11T09:06:21;3.00;70.20
68011;DHT22;54794;48.348;7.878;2022-12-11T09:08:50;3.00;70.30
68011;DHT22;54794;48.348;7.878;2022-12-11T09:11:20;3.20;70.50
68011;DHT22;54794;48.348;7.878;2022-12-11T09:13:49;3.10;70.50
68011;DHT22;54794;48.348;7.878;2022-12-11T09:16:18;3.60;70.70
68011;DHT22;54794;48.348;7.878;2022-12-11T09:18:47;3.40;70.60
68011;DHT22;54794;48.348;7.878;2022-12-11T09:21:19;3.20;70.50
68011;DHT22;54794;48.348;7.878;2022-12-11T09:23:48;3.20;70.50
68011;DHT22;54794;48.348;7.878;2022-12-11T09:26:17;3.90;70.90
68011;DHT22;54794;48.348;7.878;2022-12-11T09:28:45;3.40;70.60
68011;DHT22;54794;48.348;7.878;2022-12-11T09:31:14;3.50;70.60
68011;DHT22;54794;48.348;7.878;2022-12-11T09:33:53;3.80;70.70
68011;DHT22;54794;48.348;7.878;2022-12-11T09:36:22;3.40;70.50
68011;DHT22;54794;48.348;7.878;2022-12-11T09:38:50;3.80;70.70
68011;DHT22;54794;48.348;7.878;2022-12-11T09:46:36;3.40;70.20
68011;DHT22;54794;48.348;7.878;2022-12-11T09:49:10;3.40;70.20
68011;DHT22;54794;48.348;7.878;2022-12-11T09:51:51;3.70;70.40
68011;DHT22;54794;48.348;7.878;2022-12-11T09:54:47;3.40;70.40
68011;DHT22;54794;48.348;7.878;2022-12-11T09:57:19;3.40;70.60
68011;DHT22;54794;48.348;7.878;2022-12-11T10:05:12;3.60;70.80
68011;DHT22;54794;48.348;7.878;2022-12-11T10:08:14;3.70;70.80
68011;DHT22;54794;48.348;7.878;2022-12-11T10:10:45;4.20;70.70
68011;DHT22;54794;48.348;7.878;2022-12-11T10:13:34;3.70;70.20
68011;DHT22;54794;48.348;7.878;2022-12-11T10:16:53;3.70;70.20
68011;DHT22;54794;48.348;7.878;2022-12-11T10:19:21;3.70;70.20
68011;DHT22;54794;48.348;7.878;2022-12-11T10:21:53;3.70;70.30
68011;DHT22;54794;48.348;7.878;2022-12-11T10:24:27;3.70;70.30
68011;DHT22;54794;48.348;7.878;2022-12-11T10:27:22;3.70;70.40
68011;DHT22;54794;48.348;7.878;2022-12-11T10:30:01;3.80;70.60
68011;DHT22;54794;48.348;7.878;2022-12-11T10:32:48;3.80;70.50
68011;DHT22;54794;48.348;7.878;2022-12-11T10:35:35;3.80;70.60
68011;DHT22;54794;48.348;7.878;2022-12-11T10:40:42;3.90;70.60
68011;DHT22;54794;48.348;7.878;2022-12-11T10:43:15;3.90;70.50
68011;DHT22;54794;48.348;7.878;2022-12-11T10:45:50;3.90;70.40
68011;DHT22;54794;48.348;7.878;2022-12-11T10:48:20;3.90;70.40
68011;DHT22;54794;48.348;7.878;2022-12-11T10:51:09;4.00;70.40
68011;DHT22;54794;48.348;7.878;2022-12-11T10:53:38;4.00;70.40
68011;DHT22;54794;48.348;7.878;2022-12-11T10:56:06;4.00;70.40
68011;DHT22;54794;48.348;7.878;2022-12-11T10:58:33;4.10;70.50
68011;DHT22;54794;48.348;7.878;2022-12-11T11:01:09;4.10;70.50
68011;DHT22;54794;48.348;7.878;2022-12-11T11:03:54;4.10;70.50
68011;DHT22;54794;48.348;7.878;2022-12-11T11:06:30;4.10;70.50
68011;DHT22;54794;48.348;7.878;2022-12-11T11:08:59;4.50;70.60
68011;DHT22;54794;48.348;7.878;2022-12-11T11:14:12;4.20;70.00
68011;DHT22;54794;48.348;7.878;2022-12-11T11:16:42;4.20;70.00
68011;DHT22;54794;48.348;7.878;2022-12-11T11:37:44;3.70;69.80
68011;DHT22;54794;48.348;7.878;2022-12-11T11:40:21;4.30;70.20
68011;DHT22;54794;48.348;7.878;2022-12-11T11:51:14;4.50;70.20
68011;DHT22;54794;48.348;7.878;2022-12-11T11:53:45;4.10;70.00
68011;DHT22;54794;48.348;7.878;2022-12-11T11:56:19;4.10;70.00
68011;DHT22;54794;48.348;7.878;2022-12-11T11:58:59;4.10;69.90
68011;DHT22;54794;48.348;7.878;2022-12-11T12:01:45;4.10;69.90
68011;DHT22;54794;48.348;7.878;2022-12-11T12:04:13;4.10;69.90
68011;DHT22;54794;48.348;7.878;2022-12-11T12:09:29;4.10;69.80
68011;DHT22;54794;48.348;7.878;2022-12-11T12:17:52;4.00;69.90
68011;DHT22;54794;48.348;7.878;2022-12-11T12:28:49;4.10;70.20
68011;DHT22;54794;48.348;7.878;2022-12-11T12:37:26;4.20;70.30
68011;DHT22;54794;48.348;7.878;2022-12-11T12:49:15;4.30;70.10
68011;DHT22;54794;48.348;7.878;2022-12-11T12:51:45;4.20;69.90
68011;DHT22;54794;48.348;7.878;2022-12-11T12:54:13;4.20;69.90
68011;DHT22;54794;48.348;7.878;2022-12-11T12:56:43;4.60;70.10
68011;DHT22;54794;48.348;7.878;2022-12-11T12:59:19;4.30;69.90
68011;DHT22;54794;48.348;7.878;2022-12-11T13:01:53;4.20;69.90
68011;DHT22;54794;48.348;7.878;2022-12-11T13:07:26;4.20;69.80
68011;DHT22;54794;48.348;7.878;2022-12-11T13:10:04;4.40;69.90
68011;DHT22;54794;48.348;7.878;2022-12-11T13:12:48;4.20;69.80
68011;DHT22;54794;48.348;7.878;2022-12-11T13:18:05;4.10;69.70
68011;DHT22;54794;48.348;7.878;2022-12-11T13:20:52;4.20;69.80
68011;DHT22;54794;48.348;7.878;2022-12-11T13:23:29;4.10;69.80
68011;DHT22;54794;48.348;7.878;2022-12-11T13:25:59;4.10;69.80
68011;DHT22;54794;48.348;7.878;2022-12-11T13:33:42;4.00;69.60
68011;DHT22;54794;48.348;7.878;2022-12-11T13:39:15;3.90;69.70
68011;DHT22;54794;48.348;7.878;2022-12-11T13:41:43;3.90;69.80
68011;DHT22;54794;48.348;7.878;2022-12-11T13:44:20;4.60;70.20
68011;DHT22;54794;48.348;7.878;2022-12-11T13:46:54;3.90;69.80
68011;DHT22;54794;48.348;7.878;2022-12-11T13:49:25;4.40;70.10
68011;DHT22;54794;48.348;7.878;2022-12-11T13:51:56;4.20;70.10
68011;DHT22;54794;48.348;7.878;2022-12-11T13:54:25;4.00;70.00
68011;DHT22;54794;48.348;7.878;2022-12-11T13:59:41;4.00;69.90
68011;DHT22;54794;48.348;7.878;2022-12-11T14:02:28;4.10;69.90
68011;DHT22;54794;48.348;7.878;2022-12-11T14:05:05;4.00;69.80
68011;DHT22;54794;48.348;7.878;2022-12-11T14:07:35;4.00;69.60
68011;DHT22;54794;48.348;7.878;2022-12-11T14:10:15;4.00;69.40
68011;DHT22;54794;48.348;7.878;2022-12-11T14:12:50;3.90;69.50
68011;DHT22;54794;48.348;7.878;2022-12-11T14:15:20;3.90;69.60
68011;DHT22;54794;48.348;7.878;2022-12-11T14:17:48;4.00;69.70
68011;DHT22;54794;48.348;7.878;2022-12-11T14:20:21;4.30;69.90
68011;DHT22;54794;48.348;7.878;2022-12-11T14:23:05;3.90;69.70
68011;DHT22;54794;48.348;7.878;2022-12-11T14:25:50;3.90;69.60
68011;DHT22;54794;48.348;7.878;2022-12-11T14:28:21;3.80;69.50
68011;DHT22;54794;48.348;7.878;2022-12-11T14:30:54;3.80;69.60
68011;DHT22;54794;48.348;7.878;2022-12-11T14:33:27;3.90;69.80
68011;DHT22;54794;48.348;7.878;2022-12-11T14:36:02;3.90;69.80
68011;DHT22;54794;48.348;7.878;2022-12-11T14:38:33;3.90;69.80
68011;DHT22;54794;48.348;7.878;2022-12-11T14:41:05;4.40;70.20
68011;DHT22;54794;48.348;7.878;2022-12-11T14:43:43;3.90;69.90
68011;DHT22;54794;48.348;7.878;2022-12-11T14:47:01;3.90;69.90
68011;DHT22;54794;48.348;7.878;2022-12-11T14:49:16;4.10;70.00
68011;DHT22;54794;48.348;7.878;2022-12-11T14:51:43;3.90;69.60
68011;DHT22;54794;48.348;7.878;2022-12-11T14:54:16;4.80;70.10
68011;DHT22;54794;48.348;7.878;2022-12-11T14:56:48;3.90;69.60
68011;DHT22;54794;48.348;7.878;2022-12-11T14:59:19;3.90;69.60
68011;DHT22;54794;48.348;7.878;2022-12-11T15:02:00;3.80;69.60
68011;DHT22;54794;48.348;7.878;2022-12-11T15:04:30;3.80;69.70
68011;DHT22;54794;48.348;7.878;2022-12-11T15:06:59;3.90;69.80
68011;DHT22;54794;48.348;7.878;2022-12-11T15:09:27;4.10;69.90
68011;DHT22;54794;48.348;7.878;2022-12-11T15:12:11;3.80;69.60
68011;DHT22;54794;48.348;7.878;2022-12-11T15:14:43;3.80;69.70
68011;DHT22;54794;48.348;7.878;2022-12-11T15:17:15;3.80;69.70
68011;DHT22;54794;48.348;7.878;2022-12-11T15:19:47;3.80;69.70
68011;DHT22;54794;48.348;7.878;2022-12-11T15:22:17;3.80;69.70
68011;DHT22;54794;48.348;7.878;2022-12-11T15:24:48;3.80;69.70
68011;DHT22;54794;48.348;7.878;2022-12-11T15:27:24;4.80;70.20
68011;DHT22;54794;48.348;7.878;2022-12-11T15:30:01;3.80;69.30
68011;DHT22;54794;48.348;7.878;2022-12-11T15:32:40;3.80;69.40
68011;DHT22;54794;48.348;7.878;2022-12-11T15:35:23;4.40;69.70
68011;DHT22;54794;48.348;7.878;2022-12-11T15:37:52;3.70;69.40
68011;DHT22;54794;48.348;7.878;2022-12-11T15:40:20;3.70;69.40
68011;DHT22;54794;48.348;7.878;2022-12-11T15:42:48;3.90;69.70
68011;DHT22;54794;48.348;7.878;2022-12-11T15:45:17;3.70;69.60
68011;DHT22;54794;48.348;7.878;2022-12-11T15:47:47;3.70;69.60
68011;DHT22;54794;48.348;7.878;2022-12-11T15:50:16;4.40;70.00
68011;DHT22;54794;48.348;7.878;2022-12-11T15:55:28;3.60;69.40
68011;DHT22;54794;48.348;7.878;2022-12-11T15:58:00;3.70;69.50
68011;DHT22;54794;48.348;7.878;2022-12-11T16:00:31;4.40;69.90
68011;DHT22;54794;48.348;7.878;2022-12-11T16:02:57;4.20;69.70
68011;DHT22;54794;48.348;7.878;2022-12-11T16:05:24;3.50;69.50
68011;DHT22;54794;48.348;7.878;2022-12-11T16:07:52;4.30;69.90
68011;DHT22;54794;48.348;7.878;2022-12-11T16:10:25;3.50;69.50
68011;DHT22;54794;48.348;7.878;2022-12-11T16:12:52;3.50;69.50
68011;DHT22;54794;48.348;7.878;2022-12-11T16:15:25;3.50;69.50
68011;DHT22;54794;48.348;7.878;2022-12-11T16:17:59;3.50;69.50
68011;DHT22;54794;48.348;7.878;2022-12-11T16:20:30;3.50;69.60
68011;DHT22;54794;48.348;7.878;2022-12-11T16:22:57;3.50;69.50
68011;DHT22;54794;48.348;7.878;2022-12-11T16:25:25;3.40;69.50
68011;DHT22;54794;48.348;7.878;2022-12-11T16:27:56;3.50;69.50
68011;DHT22;54794;48.348;7.878;2022-12-11T16:30:23;3.40;69.50
68011;DHT22;54794;48.348;7.878;2022-12-11T16:41:18;3.40;69.60
68011;DHT22;54794;48.348;7.878;2022-12-11T16:43:45;3.40;69.60
68011;DHT22;54794;48.348;7.878;2022-12-11T16:46:18;4.10;70.00
68011;DHT22;54794;48.348;7.878;2022-12-11T16:48:47;3.40;69.60
68011;DHT22;54794;48.348;7.878;2022-12-11T16:51:14;3.40;69.60
68011;DHT22;54794;48.348;7.878;2022-12-11T16:53:42;3.40;69.70
68011;DHT22;54794;48.348;7.878;2022-12-11T16:56:08;3.40;69.70
68011;DHT22;54794;48.348;7.878;2022-12-11T16:58:36;3.40;69.60
68011;DHT22;54794;48.348;7.878;2022-12-11T17:01:09;3.40;69.60
68011;DHT22;54794;48.348;7.878;2022-12-11T17:03:41;3.40;69.70
68011;DHT22;54794;48.348;7.878;2022-12-11T17:14:08;3.50;69.50
68011;DHT22;54794;48.348;7.878;2022-12-11T17:16:35;3.50;69.50
68011;DHT22;54794;48.348;7.878;2022-12-11T17:19:02;3.80;69.70
68011;DHT22;54794;48.348;7.878;2022-12-11T17:21:32;3.50;69.60
68011;DHT22;54794;48.348;7.878;2022-12-11T17:23:59;4.50;70.10
68011;DHT22;54794;48.348;7.878;2022-12-11T17:26:26;3.50;69.60
68011;DHT22;54794;48.348;7.878;2022-12-11T17:28:55;4.40;70.10
68011;DHT22;54794;48.348;7.878;2022-12-11T17:31:22;3.90;69.80
68011;DHT22;54794;48.348;7.878;2022-12-11T17:33:50;3.60;69.60
68011;DHT22;54794;48.348;7.878;2022-12-11T17:36:20;3.60;69.60
68011;DHT22;54794;48.348;7.878;2022-12-11T17:38:48;3.60;69.60
68011;DHT22;54794;48.348;7.878;2022-12-11T17:41:16;4.00;69.80
68011;DHT22;54794;48.348;7.878;2022-12-11T17:43:47;3.60;69.50
68011;DHT22;54794;48.348;7.878;2022-12-11T17:46:16;3.60;69.60
68011;DHT22;54794;48.348;7.878;2022-12-11T17:48:45;3.60;69.60
68011;DHT22;54794;48.348;7.878;2022-12-11T17:51:13;3.60;69.50
68011;DHT22;54794;48.348;7.878;2022-12-11T17:53:46;3.80;69.60
68011;DHT22;54794;48.348;7.878;2022-12-11T17:56:14;3.90;69.60
68011;DHT22;54794;48.348;7.878;2022-12-11T17:58:42;4.00;69.80
68011;DHT22;54794;48.348;7.878;2022-12-11T18:01:09;3.60;69.50
68011;DHT22;54794;48.348;7.878;2022-12-11T18:03:40;3.60;69.50
68011;DHT22;54794;48.348;7.878;2022-12-11T18:06:09;3.60;69.40
68011;DHT22;54794;48.348;7.878;2022-12-11T18:08:38;3.50;69.30
68011;DHT22;54794;48.348;7.878;2022-12-11T18:11:07;4.00;69.60
68011;DHT22;54794;48.348;7.878;2022-12-11T18:13:36;4.30;70.40
68011;DHT22;54794;48.348;7.878;2022-12-11T18:16:11;4.00;69.80
68011;DHT22;54794;48.348;7.878;2022-12-11T18:18:42;3.50;69.50
68011;DHT22;54794;48.348;7.878;2022-12-11T18:21:53;4.00;69.80